sensor_id;sensor_type;location;lat;lon;timestamp;temperature;humidity
9810;DHT22;4944;52.514;13.192;2022-10-19T00:01:23;12.60;99.90
9810;DHT22;4944;52.514;13.192;2022-10-19T00:03:52;12.60;99.90
9810;DHT22;4944;52.514;13.192;2022-10-19T00:06:20;12.70;99.90
9810;DHT22;4944;52.514;13.192;2022-10-19T00:08:51;12.70;99.90
9810;DHT22;4944;52.514;13.192;2022-10-19T00:11:18;12.60;99.90
9810;DHT22;4944;52.514;13.192;2022-10-19T00:13:45;12.60;99.90
9810;DHT22;4944;52.514;13.192;2022-10-19T00:16:14;12.60;99.90
9810;DHT22;4944;52.514;13.192;2022-10-19T00:18:41;12.50;99.90
9810;DHT22;4944;52.514;13.192;2022-10-19T00:21:10;12.50;99.90
9810;DHT22;4944;52.514;13.192;2022-10-19T00:23:38;12.60;99.90
9810;DHT22;4944;52.514;13.192;2022-10-19T00:26:06;12.50;99.90
9810;DHT22;4944;52.514;13.192;2022-10-19T00:28:34;12.40;99.90
9810;DHT22;4944;52.514;13.192;2022-10-19T00:31:02;12.40;99.90
9810;DHT22;4944;52.514;13.192;2022-10-19T00:33:29;12.40;99.90
9810;DHT22;4944;52.514;13.192;2022-10-19T00:35:56;12.30;99.90
9810;DHT22;4944;52.514;13.192;2022-10-19T00:38:23;12.30;99.90
9810;DHT22;4944;52.514;13.192;2022-10-19T00:40:49;12.40;99.90
9810;DHT22;4944;52.514;13.192;2022-10-19T00:43:20;12.40;99.90
9810;DHT22;4944;52.514;13.192;2022-10-19T00:45:48;12.30;99.90
9810;DHT22;4944;52.514;13.192;2022-10-19T00:48:18;12.40;99.90
9810;DHT22;4944;52.514;13.192;2022-10-19T00:50:48;12.40;99.90
9810;DHT22;4944;52.514;13.192;2022-10-19T00:53:16;12.50;99.90
9810;DHT22;4944;52.514;13.192;2022-10-19T00:55:43;12.50;99.90
9810;DHT22;4944;52.514;13.192;2022-10-19T00:58:10;12.40;99.90
9810;DHT22;4944;52.514;13.192;2022-10-19T01:00:39;12.50;99.90
9810;DHT22;4944;52.514;13.192;2022-10-19T01:03:07;12.50;99.90
9810;DHT22;4944;52.514;13.192;2022-10-19T01:05:35;12.60;99.90
9810;DHT22;4944;52.514;13.192;2022-10-19T01:08:02;12.60;99.90
9810;DHT22;4944;52.514;13.192;2022-10-19T01:10:34;12.70;99.90
9810;DHT22;4944;52.514;13.192;2022-10-19T01:13:14;12.70;99.90
9810;DHT22;4944;52.514;13.192;2022-10-19T01:15:47;12.80;99.90
9810;DHT22;4944;52.514;13.192;2022-10-19T01:18:23;12.70;99.90
9810;DHT22;4944;52.514;13.192;2022-10-19T01:21:18;12.80;99.90
9810;DHT22;4944;52.514;13.192;2022-10-19T01:24:25;12.80;99.90
9810;DHT22;4944;52.514;13.192;2022-10-19T01:27:11;12.80;99.90
9810;DHT22;4944;52.514;13.192;2022-10-19T01:29:59;12.80;99.90
9810;DHT22;4944;52.514;13.192;2022-10-19T01:32:31;12.80;99.90
9810;DHT22;4944;52.514;13.192;2022-10-19T01:35:05;12.80;99.90
9810;DHT22;4944;52.514;13.192;2022-10-19T01:37:36;12.70;99.90
9810;DHT22;4944;52.514;13.192;2022-10-19T01:40:09;12.70;99.90
9810;DHT22;4944;52.514;13.192;2022-10-19T01:42:42;12.60;99.90
9810;DHT22;4944;52.514;13.192;2022-10-19T01:45:15;12.60;99.90
9810;DHT22;4944;52.514;13.192;2022-10-19T01:47:48;12.60;99.90
9810;DHT22;4944;52.514;13.192;2022-10-19T01:50:23;12.60;99.90
9810;DHT22;4944;52.514;13.192;2022-10-19T01:52:52;12.60;99.90
9810;DHT22;4944;52.514;13.192;2022-10-19T01:55:20;12.60;99.90
9810;DHT22;4944;52.514;13.192;2022-10-19T01:57:52;12.60;99.90
9810;DHT22;4944;52.514;13.192;2022-10-19T02:00:22;12.60;99.90
9810;DHT22;4944;52.514;13.192;2022-10-19T02:02:51;12.60;99.90
9810;DHT22;4944;52.514;13.192;2022-10-19T02:05:21;12.60;99.90
9810;DHT22;4944;52.514;13.192;2022-10-19T02:07:53;12.60;99.90
9810;DHT22;4944;52.514;13.192;2022-10-19T02:10:21;12.60;99.90
9810;DHT22;4944;52.514;13.192;2022-10-19T02:12:49;12.60;99.90
9810;DHT22;4944;52.514;13.192;2022-10-19T02:15:19;12.60;99.90
9810;DHT22;4944;52.514;13.192;2022-10-19T02:17:50;12.70;99.90
9810;DHT22;4944;52.514;13.192;2022-10-19T02:20:20;12.50;99.90
9810;DHT22;4944;52.514;13.192;2022-10-19T02:22:47;12.40;99.90
9810;DHT22;4944;52.514;13.192;2022-10-19T02:25:14;12.30;99.90
9810;DHT22;4944;52.514;13.192;2022-10-19T02:27:41;12.30;99.90
9810;DHT22;4944;52.514;13.192;2022-10-19T02:30:09;12.30;99.90
9810;DHT22;4944;52.514;13.192;2022-10-19T02:32:36;12.30;99.90
9810;DHT22;4944;52.514;13.192;2022-10-19T02:35:05;12.30;99.90
9810;DHT22;4944;52.514;13.192;2022-10-19T02:37:32;12.20;99.90
9810;DHT22;4944;52.514;13.192;2022-10-19T02:39:59;12.20;99.90
9810;DHT22;4944;52.514;13.192;2022-10-19T02:42:28;12.20;99.90
9810;DHT22;4944;52.514;13.192;2022-10-19T02:45:04;12.20;99.90
9810;DHT22;4944;52.514;13.192;2022-10-19T02:47:34;12.10;99.90
9810;DHT22;4944;52.514;13.192;2022-10-19T02:50:06;12.10;99.90
9810;DHT22;4944;52.514;13.192;2022-10-19T02:52:36;12.10;99.90
9810;DHT22;4944;52.514;13.192;2022-10-19T02:55:03;12.20;99.90
9810;DHT22;4944;52.514;13.192;2022-10-19T02:57:30;12.20;99.90
9810;DHT22;4944;52.514;13.192;2022-10-19T02:59:57;12.20;99.90
9810;DHT22;4944;52.514;13.192;2022-10-19T03:02:25;12.30;99.90
9810;DHT22;4944;52.514;13.192;2022-10-19T03:04:51;12.30;99.90
9810;DHT22;4944;52.514;13.192;2022-10-19T03:07:21;12.30;99.90
9810;DHT22;4944;52.514;13.192;2022-10-19T03:09:48;12.30;99.90
9810;DHT22;4944;52.514;13.192;2022-10-19T03:12:15;12.20;99.90
9810;DHT22;4944;52.514;13.192;2022-10-19T03:14:42;12.30;99.90
9810;DHT22;4944;52.514;13.192;2022-10-19T03:17:09;12.30;99.90
9810;DHT22;4944;52.514;13.192;2022-10-19T03:19:36;12.40;99.90
9810;DHT22;4944;52.514;13.192;2022-10-19T03:22:03;12.30;99.90
9810;DHT22;4944;52.514;13.192;2022-10-19T03:24:32;12.30;99.90
9810;DHT22;4944;52.514;13.192;2022-10-19T03:26:59;12.30;99.90
9810;DHT22;4944;52.514;13.192;2022-10-19T03:29:25;12.30;99.90
9810;DHT22;4944;52.514;13.192;2022-10-19T03:31:52;12.30;99.90
9810;DHT22;4944;52.514;13.192;2022-10-19T03:34:19;12.30;99.90
9810;DHT22;4944;52.514;13.192;2022-10-19T03:36:46;12.40;99.90
9810;DHT22;4944;52.514;13.192;2022-10-19T03:39:14;12.50;99.90
9810;DHT22;4944;52.514;13.192;2022-10-19T03:41:43;12.40;99.90
9810;DHT22;4944;52.514;13.192;2022-10-19T03:44:10;12.40;99.90
9810;DHT22;4944;52.514;13.192;2022-10-19T03:46:38;12.30;99.90
9810;DHT22;4944;52.514;13.192;2022-10-19T03:49:05;12.40;99.90
9810;DHT22;4944;52.514;13.192;2022-10-19T03:51:33;12.30;99.90
9810;DHT22;4944;52.514;13.192;2022-10-19T03:54:02;12.30;99.90
9810;DHT22;4944;52.514;13.192;2022-10-19T03:56:30;12.30;99.90
9810;DHT22;4944;52.514;13.192;2022-10-19T03:59:00;12.40;99.90
9810;DHT22;4944;52.514;13.192;2022-10-19T04:01:28;12.40;99.90
9810;DHT22;4944;52.514;13.192;2022-10-19T04:03:57;12.40;99.90
9810;DHT22;4944;52.514;13.192;2022-10-19T04:06:26;12.40;99.90
9810;DHT22;4944;52.514;13.192;2022-10-19T04:08:54;12.40;99.90
9810;DHT22;4944;52.514;13.192;2022-10-19T04:11:22;12.40;99.90
9810;DHT22;4944;52.514;13.192;2022-10-19T04:13:50;12.40;99.90
9810;DHT22;4944;52.514;13.192;2022-10-19T04:16:19;12.40;99.90
9810;DHT22;4944;52.514;13.192;2022-10-19T04:18:47;12.40;99.90
9810;DHT22;4944;52.514;13.192;2022-10-19T04:21:21;12.40;99.90
9810;DHT22;4944;52.514;13.192;2022-10-19T04:23:49;12.40;99.90
9810;DHT22;4944;52.514;13.192;2022-10-19T04:26:15;12.40;99.90
9810;DHT22;4944;52.514;13.192;2022-10-19T04:28:42;12.40;99.90
9810;DHT22;4944;52.514;13.192;2022-10-19T04:31:10;12.30;99.90
9810;DHT22;4944;52.514;13.192;2022-10-19T04:33:39;12.30;99.90
9810;DHT22;4944;52.514;13.192;2022-10-19T04:36:07;12.20;99.90
9810;DHT22;4944;52.514;13.192;2022-10-19T04:38:35;12.20;99.90
9810;DHT22;4944;52.514;13.192;2022-10-19T04:41:03;12.20;99.90
9810;DHT22;4944;52.514;13.192;2022-10-19T04:43:30;12.20;99.90
9810;DHT22;4944;52.514;13.192;2022-10-19T04:46:01;12.20;99.90
9810;DHT22;4944;52.514;13.192;2022-10-19T04:48:28;12.20;99.90
9810;DHT22;4944;52.514;13.192;2022-10-19T04:50:56;12.20;99.90
9810;DHT22;4944;52.514;13.192;2022-10-19T04:53:23;12.20;99.90
9810;DHT22;4944;52.514;13.192;2022-10-19T04:55:50;12.20;99.90
9810;DHT22;4944;52.514;13.192;2022-10-19T04:58:17;12.30;99.90
9810;DHT22;4944;52.514;13.192;2022-10-19T05:00:43;12.30;99.90
9810;DHT22;4944;52.514;13.192;2022-10-19T05:03:10;12.40;99.90
9810;DHT22;4944;52.514;13.192;2022-10-19T05:05:37;12.50;99.90
9810;DHT22;4944;52.514;13.192;2022-10-19T05:08:05;12.50;99.90
9810;DHT22;4944;52.514;13.192;2022-10-19T05:10:32;12.50;99.90
9810;DHT22;4944;52.514;13.192;2022-10-19T05:12:59;12.50;99.90
9810;DHT22;4944;52.514;13.192;2022-10-19T05:15:26;12.60;99.90
9810;DHT22;4944;52.514;13.192;2022-10-19T05:17:53;12.60;99.90
9810;DHT22;4944;52.514;13.192;2022-10-19T05:20:21;12.60;99.90
9810;DHT22;4944;52.514;13.192;2022-10-19T05:22:48;12.70;99.90
9810;DHT22;4944;52.514;13.192;2022-10-19T05:25:16;12.60;99.90
9810;DHT22;4944;52.514;13.192;2022-10-19T05:27:43;12.60;99.90
9810;DHT22;4944;52.514;13.192;2022-10-19T05:30:10;12.60;99.90
9810;DHT22;4944;52.514;13.192;2022-10-19T05:32:38;12.60;99.90
9810;DHT22;4944;52.514;13.192;2022-10-19T05:35:06;12.60;99.90
9810;DHT22;4944;52.514;13.192;2022-10-19T05:37:32;12.50;99.90
9810;DHT22;4944;52.514;13.192;2022-10-19T05:39:59;12.50;99.90
9810;DHT22;4944;52.514;13.192;2022-10-19T05:42:27;12.50;99.90
9810;DHT22;4944;52.514;13.192;2022-10-19T05:44:54;12.50;99.90
9810;DHT22;4944;52.514;13.192;2022-10-19T05:47:21;12.50;99.90
9810;DHT22;4944;52.514;13.192;2022-10-19T05:49:47;12.50;99.90
9810;DHT22;4944;52.514;13.192;2022-10-19T05:52:14;12.40;99.90
9810;DHT22;4944;52.514;13.192;2022-10-19T05:54:42;12.40;99.90
9810;DHT22;4944;52.514;13.192;2022-10-19T05:57:08;12.20;99.90
9810;DHT22;4944;52.514;13.192;2022-10-19T05:59:37;12.20;99.90
9810;DHT22;4944;52.514;13.192;2022-10-19T06:02:03;12.20;99.90
9810;DHT22;4944;52.514;13.192;2022-10-19T06:04:30;12.10;99.90
9810;DHT22;4944;52.514;13.192;2022-10-19T06:06:58;12.00;99.90
9810;DHT22;4944;52.514;13.192;2022-10-19T06:09:26;12.00;99.90
9810;DHT22;4944;52.514;13.192;2022-10-19T06:11:52;11.90;99.90
9810;DHT22;4944;52.514;13.192;2022-10-19T06:14:19;11.90;99.90
9810;DHT22;4944;52.514;13.192;2022-10-19T06:16:47;12.00;99.90
9810;DHT22;4944;52.514;13.192;2022-10-19T06:19:14;12.10;99.90
9810;DHT22;4944;52.514;13.192;2022-10-19T06:21:43;12.10;99.90
9810;DHT22;4944;52.514;13.192;2022-10-19T06:24:10;12.10;99.90
9810;DHT22;4944;52.514;13.192;2022-10-19T06:26:37;12.20;99.90
9810;DHT22;4944;52.514;13.192;2022-10-19T06:29:04;12.30;99.90
9810;DHT22;4944;52.514;13.192;2022-10-19T06:31:33;12.30;99.90
9810;DHT22;4944;52.514;13.192;2022-10-19T06:34:02;12.30;99.90
9810;DHT22;4944;52.514;13.192;2022-10-19T06:36:29;12.30;99.90
9810;DHT22;4944;52.514;13.192;2022-10-19T06:38:57;12.30;99.90
9810;DHT22;4944;52.514;13.192;2022-10-19T06:41:24;12.30;99.90
9810;DHT22;4944;52.514;13.192;2022-10-19T06:43:51;12.20;99.90
9810;DHT22;4944;52.514;13.192;2022-10-19T06:46:20;12.10;99.90
9810;DHT22;4944;52.514;13.192;2022-10-19T06:48:52;12.10;99.90
9810;DHT22;4944;52.514;13.192;2022-10-19T06:51:20;12.10;99.90
9810;DHT22;4944;52.514;13.192;2022-10-19T06:53:47;12.20;99.90
9810;DHT22;4944;52.514;13.192;2022-10-19T06:56:14;12.10;99.90
9810;DHT22;4944;52.514;13.192;2022-10-19T06:58:41;12.20;99.90
9810;DHT22;4944;52.514;13.192;2022-10-19T07:01:09;12.20;99.90
9810;DHT22;4944;52.514;13.192;2022-10-19T07:03:36;12.20;99.90
9810;DHT22;4944;52.514;13.192;2022-10-19T07:06:06;12.10;99.90
9810;DHT22;4944;52.514;13.192;2022-10-19T07:08:35;12.10;99.90
9810;DHT22;4944;52.514;13.192;2022-10-19T07:11:05;12.00;99.90
9810;DHT22;4944;52.514;13.192;2022-10-19T07:13:32;12.00;99.90
9810;DHT22;4944;52.514;13.192;2022-10-19T07:16:00;12.10;99.90
9810;DHT22;4944;52.514;13.192;2022-10-19T07:18:30;12.10;99.90
9810;DHT22;4944;52.514;13.192;2022-10-19T07:20:57;12.10;99.90
9810;DHT22;4944;52.514;13.192;2022-10-19T07:23:25;12.10;99.90
9810;DHT22;4944;52.514;13.192;2022-10-19T07:25:54;12.10;99.90
9810;DHT22;4944;52.514;13.192;2022-10-19T07:28:26;12.00;99.90
9810;DHT22;4944;52.514;13.192;2022-10-19T07:30:53;12.00;99.90
9810;DHT22;4944;52.514;13.192;2022-10-19T07:33:20;12.00;99.90
9810;DHT22;4944;52.514;13.192;2022-10-19T07:35:47;12.10;99.90
9810;DHT22;4944;52.514;13.192;2022-10-19T07:38:14;12.10;99.90
9810;DHT22;4944;52.514;13.192;2022-10-19T07:40:41;12.00;99.90
9810;DHT22;4944;52.514;13.192;2022-10-19T07:43:09;12.10;99.90
9810;DHT22;4944;52.514;13.192;2022-10-19T07:45:36;12.20;99.90
9810;DHT22;4944;52.514;13.192;2022-10-19T07:48:02;12.30;99.90
9810;DHT22;4944;52.514;13.192;2022-10-19T07:50:29;12.40;99.90
9810;DHT22;4944;52.514;13.192;2022-10-19T07:52:56;12.40;99.90
9810;DHT22;4944;52.514;13.192;2022-10-19T07:55:23;12.40;99.90
9810;DHT22;4944;52.514;13.192;2022-10-19T07:57:49;12.40;99.90
9810;DHT22;4944;52.514;13.192;2022-10-19T08:00:17;12.40;99.90
9810;DHT22;4944;52.514;13.192;2022-10-19T08:02:44;12.40;99.90
9810;DHT22;4944;52.514;13.192;2022-10-19T08:05:11;12.40;99.90
9810;DHT22;4944;52.514;13.192;2022-10-19T08:07:38;12.40;99.90
9810;DHT22;4944;52.514;13.192;2022-10-19T08:10:05;12.40;99.90
9810;DHT22;4944;52.514;13.192;2022-10-19T08:12:34;12.60;99.90
9810;DHT22;4944;52.514;13.192;2022-10-19T08:15:01;12.70;99.90
9810;DHT22;4944;52.514;13.192;2022-10-19T08:17:30;12.70;99.90
9810;DHT22;4944;52.514;13.192;2022-10-19T08:19:57;12.70;99.90
9810;DHT22;4944;52.514;13.192;2022-10-19T08:22:23;12.70;99.90
9810;DHT22;4944;52.514;13.192;2022-10-19T08:24:50;12.80;99.90
9810;DHT22;4944;52.514;13.192;2022-10-19T08:27:17;12.90;99.90
9810;DHT22;4944;52.514;13.192;2022-10-19T08:29:43;12.90;99.90
9810;DHT22;4944;52.514;13.192;2022-10-19T08:32:10;12.90;99.90
9810;DHT22;4944;52.514;13.192;2022-10-19T08:34:38;12.90;99.90
9810;DHT22;4944;52.514;13.192;2022-10-19T08:37:05;12.90;99.90
9810;DHT22;4944;52.514;13.192;2022-10-19T08:39:32;13.00;99.90
9810;DHT22;4944;52.514;13.192;2022-10-19T08:42:02;13.00;99.90
9810;DHT22;4944;52.514;13.192;2022-10-19T08:44:47;13.00;99.90
9810;DHT22;4944;52.514;13.192;2022-10-19T08:47:20;13.10;99.90
9810;DHT22;4944;52.514;13.192;2022-10-19T08:49:55;13.10;99.90
9810;DHT22;4944;52.514;13.192;2022-10-19T08:52:24;13.10;99.90
9810;DHT22;4944;52.514;13.192;2022-10-19T08:54:54;13.10;99.90
9810;DHT22;4944;52.514;13.192;2022-10-19T08:57:32;13.10;99.90
9810;DHT22;4944;52.514;13.192;2022-10-19T09:00:08;13.20;99.90
9810;DHT22;4944;52.514;13.192;2022-10-19T09:02:48;13.30;99.90
9810;DHT22;4944;52.514;13.192;2022-10-19T09:05:28;13.30;99.90
9810;DHT22;4944;52.514;13.192;2022-10-19T09:07:58;13.30;99.90
9810;DHT22;4944;52.514;13.192;2022-10-19T09:10:28;13.30;99.90
9810;DHT22;4944;52.514;13.192;2022-10-19T09:12:57;13.30;99.90
9810;DHT22;4944;52.514;13.192;2022-10-19T09:15:26;13.30;99.90
9810;DHT22;4944;52.514;13.192;2022-10-19T09:17:54;13.40;99.90
9810;DHT22;4944;52.514;13.192;2022-10-19T09:20:28;13.40;99.90
9810;DHT22;4944;52.514;13.192;2022-10-19T09:23:03;13.60;99.90
9810;DHT22;4944;52.514;13.192;2022-10-19T09:25:32;13.80;99.90
9810;DHT22;4944;52.514;13.192;2022-10-19T09:28:09;14.00;99.90
9810;DHT22;4944;52.514;13.192;2022-10-19T09:30:39;14.00;99.90
9810;DHT22;4944;52.514;13.192;2022-10-19T09:33:15;14.10;99.90
9810;DHT22;4944;52.514;13.192;2022-10-19T09:35:45;14.20;99.90
9810;DHT22;4944;52.514;13.192;2022-10-19T09:38:16;14.40;99.90
9810;DHT22;4944;52.514;13.192;2022-10-19T09:40:44;14.50;99.90
9810;DHT22;4944;52.514;13.192;2022-10-19T09:43:11;14.60;99.90
9810;DHT22;4944;52.514;13.192;2022-10-19T09:45:50;14.60;99.90
9810;DHT22;4944;52.514;13.192;2022-10-19T09:48:25;14.40;99.90
9810;DHT22;4944;52.514;13.192;2022-10-19T09:50:57;14.40;99.90
9810;DHT22;4944;52.514;13.192;2022-10-19T09:53:24;14.40;99.90
9810;DHT22;4944;52.514;13.192;2022-10-19T09:55:57;14.30;99.90
9810;DHT22;4944;52.514;13.192;2022-10-19T09:58:26;14.20;99.90
9810;DHT22;4944;52.514;13.192;2022-10-19T10:00:55;14.10;99.90
9810;DHT22;4944;52.514;13.192;2022-10-19T10:03:28;14.10;99.90
9810;DHT22;4944;52.514;13.192;2022-10-19T10:05:57;14.00;99.90
9810;DHT22;4944;52.514;13.192;2022-10-19T10:08:26;14.00;99.90
9810;DHT22;4944;52.514;13.192;2022-10-19T10:11:07;14.00;99.90
9810;DHT22;4944;52.514;13.192;2022-10-19T10:13:37;14.00;99.90
9810;DHT22;4944;52.514;13.192;2022-10-19T10:16:06;14.00;99.90
9810;DHT22;4944;52.514;13.192;2022-10-19T10:18:37;14.10;99.90
9810;DHT22;4944;52.514;13.192;2022-10-19T10:21:12;14.10;99.90
9810;DHT22;4944;52.514;13.192;2022-10-19T10:23:39;14.30;99.90
9810;DHT22;4944;52.514;13.192;2022-10-19T10:26:16;14.50;99.90
9810;DHT22;4944;52.514;13.192;2022-10-19T10:28:46;14.80;99.90
9810;DHT22;4944;52.514;13.192;2022-10-19T10:31:13;14.90;99.90
9810;DHT22;4944;52.514;13.192;2022-10-19T10:33:40;14.90;99.90
9810;DHT22;4944;52.514;13.192;2022-10-19T10:36:09;14.80;99.90
9810;DHT22;4944;52.514;13.192;2022-10-19T10:38:40;14.80;99.90
9810;DHT22;4944;52.514;13.192;2022-10-19T10:41:12;14.70;99.90
9810;DHT22;4944;52.514;13.192;2022-10-19T10:43:50;14.70;99.90
9810;DHT22;4944;52.514;13.192;2022-10-19T10:46:20;14.70;99.90
9810;DHT22;4944;52.514;13.192;2022-10-19T10:48:53;14.70;99.90
9810;DHT22;4944;52.514;13.192;2022-10-19T10:51:42;14.70;99.90
9810;DHT22;4944;52.514;13.192;2022-10-19T10:54:17;14.70;99.90
9810;DHT22;4944;52.514;13.192;2022-10-19T10:56:56;14.80;99.90
9810;DHT22;4944;52.514;13.192;2022-10-19T10:59:28;14.90;99.90
9810;DHT22;4944;52.514;13.192;2022-10-19T11:02:02;15.10;99.90
9810;DHT22;4944;52.514;13.192;2022-10-19T11:04:32;15.30;99.90
9810;DHT22;4944;52.514;13.192;2022-10-19T11:07:11;15.50;99.90
9810;DHT22;4944;52.514;13.192;2022-10-19T11:09:43;15.70;99.90
9810;DHT22;4944;52.514;13.192;2022-10-19T11:12:15;15.80;99.90
9810;DHT22;4944;52.514;13.192;2022-10-19T11:14:47;16.00;99.90
9810;DHT22;4944;52.514;13.192;2022-10-19T11:17:17;16.10;99.90
9810;DHT22;4944;52.514;13.192;2022-10-19T11:19:45;16.30;99.90
9810;DHT22;4944;52.514;13.192;2022-10-19T11:22:21;16.40;99.90
9810;DHT22;4944;52.514;13.192;2022-10-19T11:25:01;16.60;99.90
9810;DHT22;4944;52.514;13.192;2022-10-19T11:27:39;16.80;99.90
9810;DHT22;4944;52.514;13.192;2022-10-19T11:30:11;17.10;99.90
9810;DHT22;4944;52.514;13.192;2022-10-19T11:32:56;17.30;99.90
9810;DHT22;4944;52.514;13.192;2022-10-19T11:35:42;17.30;99.90
9810;DHT22;4944;52.514;13.192;2022-10-19T11:38:27;17.20;99.90
9810;DHT22;4944;52.514;13.192;2022-10-19T11:41:05;17.10;99.90
9810;DHT22;4944;52.514;13.192;2022-10-19T11:43:37;17.10;99.90
9810;DHT22;4944;52.514;13.192;2022-10-19T11:46:14;17.00;99.90
9810;DHT22;4944;52.514;13.192;2022-10-19T11:48:59;17.10;99.90
9810;DHT22;4944;52.514;13.192;2022-10-19T11:51:32;17.30;99.90
9810;DHT22;4944;52.514;13.192;2022-10-19T11:54:11;17.30;99.90
9810;DHT22;4944;52.514;13.192;2022-10-19T11:56:45;17.00;99.90
9810;DHT22;4944;52.514;13.192;2022-10-19T11:59:20;16.90;99.90
9810;DHT22;4944;52.514;13.192;2022-10-19T12:01:57;16.70;99.90
9810;DHT22;4944;52.514;13.192;2022-10-19T12:04:41;16.50;99.90
9810;DHT22;4944;52.514;13.192;2022-10-19T12:07:21;16.60;99.90
9810;DHT22;4944;52.514;13.192;2022-10-19T12:10:01;17.00;99.90
9810;DHT22;4944;52.514;13.192;2022-10-19T12:12:32;17.30;99.90
9810;DHT22;4944;52.514;13.192;2022-10-19T12:15:11;17.60;99.90
9810;DHT22;4944;52.514;13.192;2022-10-19T12:17:44;17.90;99.90
9810;DHT22;4944;52.514;13.192;2022-10-19T12:20:18;18.10;99.90
9810;DHT22;4944;52.514;13.192;2022-10-19T12:22:46;18.30;99.90
9810;DHT22;4944;52.514;13.192;2022-10-19T12:25:17;18.60;99.90
9810;DHT22;4944;52.514;13.192;2022-10-19T12:27:46;18.70;99.90
9810;DHT22;4944;52.514;13.192;2022-10-19T12:30:16;18.40;99.90
9810;DHT22;4944;52.514;13.192;2022-10-19T12:32:52;18.00;99.90
9810;DHT22;4944;52.514;13.192;2022-10-19T12:35:43;17.70;99.90
9810;DHT22;4944;52.514;13.192;2022-10-19T12:38:18;17.40;99.90
9810;DHT22;4944;52.514;13.192;2022-10-19T12:40:54;17.10;99.90
9810;DHT22;4944;52.514;13.192;2022-10-19T12:43:26;16.90;99.90
9810;DHT22;4944;52.514;13.192;2022-10-19T12:46:05;16.70;99.90
9810;DHT22;4944;52.514;13.192;2022-10-19T12:48:34;16.60;99.90
9810;DHT22;4944;52.514;13.192;2022-10-19T12:51:06;16.60;99.90
9810;DHT22;4944;52.514;13.192;2022-10-19T12:53:35;16.50;99.90
9810;DHT22;4944;52.514;13.192;2022-10-19T12:56:08;16.50;99.90
9810;DHT22;4944;52.514;13.192;2022-10-19T12:58:43;16.60;99.90
9810;DHT22;4944;52.514;13.192;2022-10-19T13:01:17;16.50;99.90
9810;DHT22;4944;52.514;13.192;2022-10-19T13:03:44;16.40;99.90
9810;DHT22;4944;52.514;13.192;2022-10-19T13:06:15;16.40;99.90
9810;DHT22;4944;52.514;13.192;2022-10-19T13:08:47;16.40;99.90
9810;DHT22;4944;52.514;13.192;2022-10-19T13:11:20;16.30;99.90
9810;DHT22;4944;52.514;13.192;2022-10-19T13:13:59;16.20;99.90
9810;DHT22;4944;52.514;13.192;2022-10-19T13:16:40;16.20;99.90
9810;DHT22;4944;52.514;13.192;2022-10-19T13:19:19;16.10;99.90
9810;DHT22;4944;52.514;13.192;2022-10-19T13:21:52;16.00;99.90
9810;DHT22;4944;52.514;13.192;2022-10-19T13:24:26;15.90;99.90
9810;DHT22;4944;52.514;13.192;2022-10-19T13:27:28;16.00;99.90
9810;DHT22;4944;52.514;13.192;2022-10-19T13:30:00;16.30;99.90
9810;DHT22;4944;52.514;13.192;2022-10-19T13:32:32;16.70;99.90
9810;DHT22;4944;52.514;13.192;2022-10-19T13:35:30;17.10;99.90
9810;DHT22;4944;52.514;13.192;2022-10-19T13:38:22;17.50;99.90
9810;DHT22;4944;52.514;13.192;2022-10-19T13:41:10;17.80;99.90
9810;DHT22;4944;52.514;13.192;2022-10-19T13:43:49;18.10;99.90
9810;DHT22;4944;52.514;13.192;2022-10-19T13:46:20;18.40;99.90
9810;DHT22;4944;52.514;13.192;2022-10-19T13:49:16;18.60;99.90
9810;DHT22;4944;52.514;13.192;2022-10-19T13:51:55;18.70;99.90
9810;DHT22;4944;52.514;13.192;2022-10-19T13:54:42;18.70;99.90
9810;DHT22;4944;52.514;13.192;2022-10-19T13:57:18;18.50;99.90
9810;DHT22;4944;52.514;13.192;2022-10-19T14:00:08;18.30;99.90
9810;DHT22;4944;52.514;13.192;2022-10-19T14:03:01;17.90;99.90
9810;DHT22;4944;52.514;13.192;2022-10-19T14:05:58;17.70;99.90
9810;DHT22;4944;52.514;13.192;2022-10-19T14:11:31;17.20;99.90
9810;DHT22;4944;52.514;13.192;2022-10-19T14:14:13;17.10;99.90
9810;DHT22;4944;52.514;13.192;2022-10-19T14:16:48;16.90;99.90
9810;DHT22;4944;52.514;13.192;2022-10-19T14:19:22;16.70;99.90
9810;DHT22;4944;52.514;13.192;2022-10-19T14:21:52;16.60;99.90
9810;DHT22;4944;52.514;13.192;2022-10-19T14:24:20;16.50;99.90
9810;DHT22;4944;52.514;13.192;2022-10-19T14:26:46;16.60;99.90
9810;DHT22;4944;52.514;13.192;2022-10-19T14:29:13;16.90;99.90
9810;DHT22;4944;52.514;13.192;2022-10-19T14:31:40;17.20;99.90
9810;DHT22;4944;52.514;13.192;2022-10-19T14:34:09;17.20;99.90
9810;DHT22;4944;52.514;13.192;2022-10-19T14:36:37;17.20;99.90
9810;DHT22;4944;52.514;13.192;2022-10-19T14:39:05;17.10;99.90
9810;DHT22;4944;52.514;13.192;2022-10-19T14:41:34;16.90;99.90
9810;DHT22;4944;52.514;13.192;2022-10-19T14:44:20;16.70;99.90
9810;DHT22;4944;52.514;13.192;2022-10-19T14:46:51;16.50;99.90
9810;DHT22;4944;52.514;13.192;2022-10-19T14:49:19;16.50;99.90
9810;DHT22;4944;52.514;13.192;2022-10-19T14:51:49;16.70;99.90
9810;DHT22;4944;52.514;13.192;2022-10-19T14:54:22;16.90;99.90
9810;DHT22;4944;52.514;13.192;2022-10-19T14:56:56;17.10;99.90
9810;DHT22;4944;52.514;13.192;2022-10-19T14:59:25;17.30;99.90
9810;DHT22;4944;52.514;13.192;2022-10-19T15:01:54;17.40;99.90
9810;DHT22;4944;52.514;13.192;2022-10-19T15:04:26;17.50;99.90
9810;DHT22;4944;52.514;13.192;2022-10-19T15:06:54;17.60;99.90
9810;DHT22;4944;52.514;13.192;2022-10-19T15:09:24;17.50;99.90
9810;DHT22;4944;52.514;13.192;2022-10-19T15:11:52;17.50;99.90
9810;DHT22;4944;52.514;13.192;2022-10-19T15:14:21;17.50;99.90
9810;DHT22;4944;52.514;13.192;2022-10-19T15:16:51;17.30;99.90
9810;DHT22;4944;52.514;13.192;2022-10-19T15:19:25;17.10;99.90
9810;DHT22;4944;52.514;13.192;2022-10-19T15:22:13;16.90;99.90
9810;DHT22;4944;52.514;13.192;2022-10-19T15:24:54;16.70;99.90
9810;DHT22;4944;52.514;13.192;2022-10-19T15:27:27;16.50;99.90
9810;DHT22;4944;52.514;13.192;2022-10-19T15:29:55;16.30;99.90
9810;DHT22;4944;52.514;13.192;2022-10-19T15:32:24;16.20;99.90
9810;DHT22;4944;52.514;13.192;2022-10-19T15:34:52;16.20;99.90
9810;DHT22;4944;52.514;13.192;2022-10-19T15:37:21;16.10;99.90
9810;DHT22;4944;52.514;13.192;2022-10-19T15:39:49;16.00;99.90
9810;DHT22;4944;52.514;13.192;2022-10-19T15:42:34;16.00;99.90
9810;DHT22;4944;52.514;13.192;2022-10-19T15:45:02;15.90;99.90
9810;DHT22;4944;52.514;13.192;2022-10-19T15:47:29;15.90;99.90
9810;DHT22;4944;52.514;13.192;2022-10-19T15:49:59;15.80;99.90
9810;DHT22;4944;52.514;13.192;2022-10-19T15:52:28;15.70;99.90
9810;DHT22;4944;52.514;13.192;2022-10-19T15:54:57;15.70;99.90
9810;DHT22;4944;52.514;13.192;2022-10-19T15:57:27;15.60;99.90
9810;DHT22;4944;52.514;13.192;2022-10-19T15:59:56;15.50;99.90
9810;DHT22;4944;52.514;13.192;2022-10-19T16:02:23;15.40;99.90
9810;DHT22;4944;52.514;13.192;2022-10-19T16:04:50;15.30;99.90
9810;DHT22;4944;52.514;13.192;2022-10-19T16:07:24;15.10;99.90
9810;DHT22;4944;52.514;13.192;2022-10-19T16:09:51;15.10;99.90
9810;DHT22;4944;52.514;13.192;2022-10-19T16:12:18;14.90;99.90